createdAt,value
2022-10-28T00:00:44.052Z,12.22
2022-10-28T00:06:11.725Z,12.14
2022-10-28T00:11:34.542Z,12.12
2022-10-28T00:16:55.232Z,12.06
2022-10-28T00:22:15.766Z,12.07
2022-10-28T00:27:36.549Z,12.03
2022-10-28T00:32:57.133Z,11.99
2022-10-28T00:38:17.679Z,11.94
2022-10-28T00:43:47.177Z,11.89
2022-10-28T00:49:21.382Z,11.78
2022-10-28T00:54:43.916Z,11.77
2022-10-28T01:00:07.032Z,11.71
2022-10-28T01:05:32.308Z,11.64
2022-10-28T01:11:08.380Z,11.77
2022-10-28T01:16:45.457Z,11.77
2022-10-28T01:28:06.622Z,11.65
2022-10-28T01:33:36.507Z,11.80
2022-10-28T01:39:10.553Z,11.73
2022-10-28T01:45:01.346Z,11.56
2022-10-28T01:50:29.510Z,11.46
2022-10-28T01:55:54.040Z,11.42
2022-10-28T02:01:15.940Z,11.41
2022-10-28T02:06:38.239Z,11.44
2022-10-28T02:12:07.812Z,11.41
2022-10-28T02:17:47.467Z,11.50
2022-10-28T02:23:29.366Z,11.51
2022-10-28T02:28:57.641Z,11.39
2022-10-28T02:34:24.624Z,11.36
2022-10-28T02:39:52.461Z,11.34
2022-10-28T02:45:21.174Z,11.21
2022-10-28T02:50:46.182Z,11.18
2022-10-28T02:56:09.505Z,11.26
2022-10-28T03:01:30.190Z,11.33
2022-10-28T03:06:50.803Z,11.33
2022-10-28T03:12:11.977Z,11.10
2022-10-28T03:17:32.846Z,11.08
2022-10-28T03:22:53.648Z,11.18
2022-10-28T03:28:14.577Z,11.31
2022-10-28T03:33:35.501Z,11.21
2022-10-28T03:38:56.525Z,11.09
2022-10-28T03:44:16.975Z,10.97
2022-10-28T03:49:37.659Z,10.89
2022-10-28T03:54:58.363Z,10.94
2022-10-28T04:00:19.617Z,10.89
2022-10-28T04:05:40.118Z,10.73
2022-10-28T04:11:00.718Z,10.71
2022-10-28T04:16:21.249Z,10.76
2022-10-28T04:21:41.975Z,10.80
2022-10-28T04:27:02.469Z,10.85
2022-10-28T04:32:23.152Z,10.80
2022-10-28T04:37:43.816Z,10.73
2022-10-28T04:43:08.513Z,10.78
2022-10-28T04:48:30.750Z,10.78
2022-10-28T04:53:51.465Z,10.79
2022-10-28T04:59:12.268Z,10.73
2022-10-28T05:04:32.846Z,10.62
2022-10-28T05:09:53.488Z,10.59
2022-10-28T05:15:15.131Z,10.59
2022-10-28T05:20:35.812Z,10.66
2022-10-28T05:25:56.370Z,10.64
2022-10-28T05:31:17.794Z,10.75
2022-10-28T05:36:38.748Z,10.84
2022-10-28T05:41:59.546Z,10.68
2022-10-28T05:47:20.114Z,10.50
2022-10-28T05:52:40.713Z,10.39
2022-10-28T05:58:01.551Z,10.31
2022-10-28T06:03:24.097Z,10.32
2022-10-28T06:08:49.058Z,10.33
2022-10-28T06:14:08.300Z,10.29
2022-10-28T06:19:28.779Z,10.12
2022-10-28T06:24:49.429Z,9.99
2022-10-28T06:30:10.801Z,9.95
2022-10-28T06:35:31.640Z,9.95
2022-10-28T06:40:52.844Z,9.92
2022-10-28T06:46:13.828Z,9.95
2022-10-28T06:51:36.029Z,9.95
2022-10-28T06:56:59.643Z,10.01
2022-10-28T07:02:20.685Z,10.14
2022-10-28T07:07:41.199Z,10.31
2022-10-28T07:13:01.856Z,10.30
2022-10-28T07:18:23.634Z,10.30
2022-10-28T07:23:46.775Z,10.28
2022-10-28T07:29:07.752Z,10.33
2022-10-28T07:34:28.277Z,10.43
2022-10-28T07:39:50.246Z,10.77
2022-10-28T07:45:11.079Z,12.34
2022-10-28T07:50:31.915Z,12.64
2022-10-28T07:56:01.342Z,12.40
2022-10-28T08:01:22.696Z,12.25
2022-10-28T08:06:44.377Z,11.97
2022-10-28T08:12:05.858Z,11.88
2022-10-28T08:17:26.587Z,11.87
2022-10-28T08:22:47.490Z,12.30
2022-10-28T08:28:08.097Z,12.62
2022-10-28T08:33:28.519Z,12.90
2022-10-28T08:38:49.192Z,13.11
2022-10-28T08:44:15.836Z,13.40
2022-10-28T08:49:42.462Z,13.46
2022-10-28T08:55:07.738Z,13.31
2022-10-28T09:00:31.582Z,13.33
2022-10-28T09:06:11.034Z,13.36
2022-10-28T09:12:07.008Z,13.39
2022-10-28T09:17:53.457Z,13.54
2022-10-28T09:23:29.810Z,13.70
2022-10-28T09:29:18.513Z,13.89
2022-10-28T09:35:06.476Z,14.04
2022-10-28T09:40:33.945Z,14.09
2022-10-28T09:46:01.010Z,14.21
2022-10-28T09:52:01.830Z,14.32
2022-10-28T09:57:29.515Z,14.45
2022-10-28T10:02:55.444Z,14.67
2022-10-28T10:08:19.045Z,14.76
2022-10-28T10:13:43.468Z,14.94
2022-10-28T10:19:07.519Z,15.12
2022-10-28T10:24:36.086Z,15.25
2022-10-28T10:29:58.334Z,15.46
2022-10-28T10:35:24.856Z,15.55
2022-10-28T10:40:52.921Z,15.69
2022-10-28T10:46:16.452Z,15.93
2022-10-28T10:51:40.185Z,16.14
2022-10-28T10:57:22.772Z,16.34
2022-10-28T11:02:49.019Z,16.55
2022-10-28T11:08:26.643Z,16.73
2022-10-28T11:13:49.252Z,16.94
2022-10-28T11:19:24.196Z,17.16
2022-10-28T11:25:00.304Z,17.34
2022-10-28T11:30:29.504Z,17.49
2022-10-28T11:36:15.247Z,17.55
2022-10-28T11:41:53.579Z,17.61
2022-10-28T11:47:50.578Z,17.64
2022-10-28T11:53:37.266Z,17.65
2022-10-28T11:59:33.858Z,17.78
2022-10-28T12:05:12.994Z,17.71
2022-10-28T12:10:46.414Z,17.76
2022-10-28T12:16:13.213Z,17.85
2022-10-28T12:21:42.194Z,17.87
2022-10-28T12:27:25.669Z,17.74
2022-10-28T12:32:49.944Z,17.66
2022-10-28T12:38:16.719Z,17.75
2022-10-28T12:43:42.631Z,17.86
2022-10-28T12:49:11.682Z,18.01
2022-10-28T12:54:53.654Z,18.12
2022-10-28T13:00:28.137Z,18.24
2022-10-28T13:05:57.709Z,18.37
2022-10-28T13:11:21.401Z,18.48
2022-10-28T13:17:08.343Z,18.61
2022-10-28T13:22:55.461Z,18.62
2022-10-28T13:28:19.356Z,18.63
2022-10-28T13:33:50.675Z,18.67
2022-10-28T13:39:24.932Z,18.66
2022-10-28T13:44:55.457Z,18.69
2022-10-28T13:50:22.454Z,18.74
2022-10-28T13:55:45.034Z,18.79
2022-10-28T14:01:43.463Z,18.72
2022-10-28T14:07:17.430Z,18.66
2022-10-28T14:12:43.376Z,18.54
2022-10-28T14:24:09.303Z,18.38
2022-10-28T14:29:30.231Z,18.29
2022-10-28T14:34:51.177Z,18.21
2022-10-28T14:40:23.595Z,18.14
2022-10-28T14:46:13.893Z,18.12
2022-10-28T14:51:41.153Z,18.10
2022-10-28T14:57:01.899Z,18.09
2022-10-28T15:02:28.636Z,18.08
2022-10-28T15:07:50.102Z,18.07
2022-10-28T15:13:16.755Z,17.98
2022-10-28T15:18:47.201Z,17.94
2022-10-28T15:24:13.397Z,17.87
2022-10-28T15:29:34.606Z,17.77
2022-10-28T15:34:55.636Z,17.74
2022-10-28T15:40:28.912Z,17.62
2022-10-28T15:45:50.142Z,17.51
2022-10-28T15:51:19.234Z,17.38
2022-10-28T15:57:00.404Z,17.30
2022-10-28T16:02:43.278Z,17.17
2022-10-28T16:08:08.086Z,17.12
2022-10-28T16:13:48.169Z,17.02
2022-10-28T16:19:17.296Z,16.87
2022-10-28T16:24:38.105Z,16.63
2022-10-28T16:29:58.890Z,16.52
2022-10-28T16:35:22.029Z,16.42
2022-10-28T16:40:51.342Z,16.40
2022-10-28T16:46:13.525Z,16.18
2022-10-28T16:51:34.519Z,15.92
2022-10-28T16:56:55.078Z,15.83
2022-10-28T17:02:22.564Z,15.82
2022-10-28T17:07:43.597Z,15.74
2022-10-28T17:13:04.298Z,15.83
2022-10-28T17:18:25.121Z,15.91
2022-10-28T17:23:45.753Z,15.81
2022-10-28T17:29:07.297Z,15.75
2022-10-28T17:34:27.987Z,15.64
2022-10-28T17:39:48.768Z,15.64
2022-10-28T17:45:11.329Z,15.72
2022-10-28T17:50:31.965Z,15.70
2022-10-28T17:55:59.390Z,15.62
2022-10-28T18:01:20.229Z,15.54
2022-10-28T18:06:42.283Z,15.59
2022-10-28T18:12:03.464Z,15.67
2022-10-28T18:17:24.466Z,15.75
2022-10-28T18:22:45.796Z,15.72
2022-10-28T18:28:06.301Z,15.68
2022-10-28T18:33:32.325Z,15.60
2022-10-28T18:38:53.428Z,15.49
2022-10-28T18:44:17.055Z,15.36
2022-10-28T18:49:38.164Z,15.31
2022-10-28T18:55:00.570Z,15.27
2022-10-28T19:00:21.492Z,15.13
2022-10-28T19:05:42.437Z,15.16
2022-10-28T19:11:03.582Z,15.10
2022-10-28T19:16:27.164Z,14.93
2022-10-28T19:21:48.360Z,14.82
2022-10-28T19:27:09.063Z,14.80
2022-10-28T19:32:30.665Z,14.78
2022-10-28T19:37:55.504Z,14.72
2022-10-28T19:43:16.221Z,14.74
2022-10-28T19:48:38.964Z,14.69
2022-10-28T19:54:01.875Z,14.64
2022-10-28T19:59:22.911Z,14.60
2022-10-28T20:04:43.757Z,14.60
2022-10-28T20:10:05.187Z,14.62
2022-10-28T20:15:25.935Z,14.63
2022-10-28T20:20:46.564Z,14.62
2022-10-28T20:26:07.633Z,14.63
2022-10-28T20:31:30.186Z,14.62
2022-10-28T20:36:51.276Z,14.52
2022-10-28T20:42:11.961Z,14.41
2022-10-28T20:47:32.554Z,14.55
2022-10-28T20:52:53.352Z,14.57
2022-10-28T20:58:14.448Z,14.64
2022-10-28T21:03:35.053Z,14.59
2022-10-28T21:08:56.763Z,14.44
2022-10-28T21:14:17.568Z,14.41
2022-10-28T21:19:38.423Z,14.42
2022-10-28T21:24:59.045Z,14.49
2022-10-28T21:30:19.743Z,14.61
2022-10-28T21:35:40.810Z,14.61
2022-10-28T21:41:22.904Z,14.46
2022-10-28T21:46:43.880Z,14.53
2022-10-28T21:52:13.889Z,14.56
2022-10-28T21:57:34.501Z,14.50
2022-10-28T22:02:55.124Z,14.46
2022-10-28T22:08:16.435Z,14.46
2022-10-28T22:13:37.403Z,14.44
2022-10-28T22:18:59.464Z,14.60
2022-10-28T22:24:20.380Z,14.61
2022-10-28T22:29:41.094Z,14.57
2022-10-28T22:35:01.820Z,14.52
2022-10-28T22:40:22.631Z,14.52
2022-10-28T22:45:43.406Z,14.58
2022-10-28T22:51:05.159Z,14.58
2022-10-28T22:56:27.547Z,14.43
2022-10-28T23:01:48.390Z,14.31
2022-10-28T23:07:09.332Z,14.29
2022-10-28T23:12:29.897Z,14.25
2022-10-28T23:17:51.602Z,14.33
2022-10-28T23:23:12.158Z,14.40
2022-10-28T23:28:33.013Z,14.42
2022-10-28T23:33:54.983Z,14.36
2022-10-28T23:39:15.599Z,14.33
2022-10-28T23:44:36.326Z,14.31
2022-10-28T23:49:56.907Z,14.35
2022-10-28T23:55:17.608Z,14.32
